createdAt,value
2019-04-11T00:02:00.501Z,73.00
2019-04-11T00:04:30.289Z,73.57
2019-04-11T00:07:00.247Z,68.37
2019-04-11T00:09:30.437Z,71.80
2019-04-11T00:12:00.016Z,74.20
2019-04-11T00:14:29.688Z,75.67
2019-04-11T00:16:59.201Z,77.90
2019-04-11T00:19:29.466Z,76.83
2019-04-11T00:21:59.889Z,76.17
2019-04-11T00:24:29.353Z,78.60
2019-04-11T00:26:58.928Z,79.47
2019-04-11T00:29:28.564Z,82.80
2019-04-11T00:31:58.191Z,80.30
2019-04-11T00:34:27.556Z,84.17
2019-04-11T00:36:56.962Z,81.43
2019-04-11T00:39:26.340Z,81.30
2019-04-11T00:41:56.522Z,89.40
2019-04-11T00:44:27.118Z,87.97
2019-04-11T00:46:58.516Z,85.33
2019-04-11T00:49:28.072Z,80.63
2019-04-11T00:51:58.298Z,76.83
2019-04-11T00:54:28.908Z,78.00
2019-04-11T00:56:58.818Z,78.33
2019-04-11T00:59:28.469Z,75.23
2019-04-11T01:01:58.840Z,75.10
2019-04-11T01:04:28.714Z,77.23
2019-04-11T01:06:58.596Z,74.67
2019-04-11T01:09:30.458Z,79.47
2019-04-11T01:12:00.485Z,74.83
2019-04-11T01:14:32.054Z,77.27
2019-04-11T01:17:01.531Z,69.47
2019-04-11T01:19:30.986Z,70.23
2019-04-11T01:22:01.331Z,73.10
2019-04-11T01:24:31.520Z,74.37
2019-04-11T01:27:01.451Z,69.07
2019-04-11T01:29:31.419Z,72.53
2019-04-11T01:32:04.279Z,73.30
2019-04-11T01:34:34.886Z,69.73
2019-04-11T01:37:04.975Z,70.27
2019-04-11T01:39:53.827Z,72.43
2019-04-11T01:42:25.045Z,68.07
2019-04-11T01:44:54.803Z,66.63
2019-04-11T01:47:39.407Z,62.10
2019-04-11T01:50:10.635Z,65.10
2019-04-11T01:52:42.412Z,61.30
2019-04-11T01:55:12.293Z,64.97
2019-04-11T01:58:00.905Z,65.90
2019-04-11T02:00:48.674Z,66.07
2019-04-11T02:03:21.325Z,66.80
2019-04-11T02:05:51.605Z,66.87
2019-04-11T02:08:23.027Z,67.97
2019-04-11T02:10:52.919Z,70.30
2019-04-11T02:13:22.351Z,66.07
2019-04-11T02:15:54.208Z,66.13
2019-04-11T02:18:23.540Z,65.50
2019-04-11T02:20:54.236Z,56.17
2019-04-11T02:23:30.930Z,56.57
2019-04-11T02:26:22.206Z,56.03
2019-04-11T02:28:53.094Z,55.03
2019-04-11T02:31:23.226Z,52.97
2019-04-11T02:33:52.676Z,55.23
2019-04-11T02:36:22.423Z,56.07
2019-04-11T02:38:56.579Z,53.90
2019-04-11T02:41:23.138Z,56.00
2019-04-11T02:43:52.746Z,55.57
2019-04-11T02:46:33.073Z,58.93
2019-04-11T02:48:54.532Z,56.80
2019-04-11T02:51:26.844Z,59.47
2019-04-11T02:53:57.365Z,57.23
2019-04-11T02:56:28.136Z,56.37
2019-04-11T02:59:19.532Z,55.87
2019-04-11T03:01:50.852Z,55.87
2019-04-11T03:04:22.737Z,58.23
2019-04-11T03:06:52.125Z,54.57
2019-04-11T03:09:22.499Z,55.50
2019-04-11T03:11:54.456Z,51.57
2019-04-11T03:14:25.151Z,51.97
2019-04-11T03:17:06.249Z,51.90
2019-04-11T03:19:42.341Z,48.50
2019-04-11T03:22:01.602Z,50.37
2019-04-11T03:24:35.898Z,52.67
2019-04-11T03:27:07.749Z,47.80
2019-04-11T03:29:37.915Z,50.00
2019-04-11T03:35:20.815Z,48.47
2019-04-11T03:37:37.265Z,47.53
2019-04-11T03:39:59.342Z,47.43
2019-04-11T03:42:52.418Z,45.97
2019-04-11T03:45:27.507Z,46.23
2019-04-11T03:47:55.943Z,47.60
2019-04-11T03:50:16.539Z,49.37
2019-04-11T03:52:43.103Z,50.73
2019-04-11T03:55:15.292Z,46.53
2019-04-11T03:57:47.049Z,49.60
2019-04-11T04:00:16.804Z,48.13
2019-04-11T04:02:46.791Z,48.40
2019-04-11T04:05:17.726Z,49.93
2019-04-11T04:07:48.891Z,48.90
2019-04-11T04:10:21.163Z,49.67
2019-04-11T04:12:53.534Z,50.40
2019-04-11T04:16:07.797Z,49.53
2019-04-11T04:18:50.063Z,49.87
2019-04-11T04:21:55.298Z,53.93
2019-04-11T04:24:37.863Z,51.00
2019-04-11T04:27:07.626Z,50.07
2019-04-11T04:29:38.102Z,51.57
2019-04-11T04:32:08.847Z,46.73
2019-04-11T04:34:39.967Z,49.40
2019-04-11T04:37:12.024Z,47.13
2019-04-11T04:39:43.640Z,47.10
2019-04-11T04:42:23.572Z,49.37
2019-04-11T04:44:46.684Z,50.33
2019-04-11T04:47:25.050Z,48.10
2019-04-11T04:49:50.085Z,47.27
2019-04-11T04:52:20.790Z,48.43
2019-04-11T04:54:50.287Z,47.73
2019-04-11T04:57:21.264Z,47.77
2019-04-11T04:59:50.664Z,41.83
2019-04-11T05:02:20.628Z,46.20
2019-04-11T05:04:52.012Z,40.47
2019-04-11T05:07:25.697Z,39.47
2019-04-11T05:09:56.655Z,33.03
2019-04-11T05:12:26.320Z,34.00
2019-04-11T05:14:56.053Z,36.47
2019-04-11T05:17:28.197Z,34.73
2019-04-11T05:19:58.560Z,34.53
2019-04-11T05:22:28.134Z,34.83
2019-04-11T05:25:01.375Z,37.20
2019-04-11T05:27:29.363Z,36.33
2019-04-11T05:29:58.798Z,34.07
2019-04-11T05:32:29.139Z,35.17
2019-04-11T05:34:58.597Z,32.77
2019-04-11T05:37:29.282Z,34.43
2019-04-11T05:40:00.795Z,32.70
2019-04-11T05:42:31.294Z,31.03
2019-04-11T05:45:01.058Z,30.77
2019-04-11T05:47:31.629Z,27.10
2019-04-11T05:50:13.591Z,27.87
2019-04-11T05:52:42.152Z,26.20
2019-04-11T05:55:13.617Z,25.03
2019-04-11T05:57:44.958Z,24.57
2019-04-11T06:00:23.388Z,25.30
2019-04-11T06:03:01.813Z,19.53
2019-04-11T06:05:59.892Z,21.40
2019-04-11T06:08:30.013Z,19.27
2019-04-11T06:11:23.671Z,18.50
2019-04-11T06:14:09.297Z,20.17
2019-04-11T06:16:46.153Z,15.97
2019-04-11T06:19:30.657Z,16.23
2019-04-11T06:22:04.457Z,13.77
2019-04-11T06:24:48.237Z,12.63
2019-04-11T06:27:24.460Z,15.33
2019-04-11T06:30:17.814Z,17.13
2019-04-11T06:33:06.124Z,16.73
2019-04-11T06:35:54.579Z,13.03
2019-04-11T06:38:42.786Z,17.10
2019-04-11T06:41:19.460Z,12.43
2019-04-11T06:44:00.608Z,17.33
2019-04-11T06:46:55.808Z,11.67
2019-04-11T06:49:51.052Z,11.47
2019-04-11T06:52:20.963Z,12.67
2019-04-11T06:55:15.348Z,12.07
2019-04-11T06:57:45.927Z,10.63
2019-04-11T07:00:16.949Z,11.43
2019-04-11T07:02:55.061Z,11.37
2019-04-11T07:05:26.755Z,10.77
2019-04-11T07:07:56.183Z,12.43
2019-04-11T07:10:34.040Z,12.37
2019-04-11T07:13:28.566Z,11.37
2019-04-11T07:16:00.413Z,14.43
2019-04-11T07:19:07.025Z,12.60
2019-04-11T07:21:37.166Z,13.80
2019-04-11T07:24:25.373Z,15.00
2019-04-11T07:27:03.212Z,15.07
2019-04-11T07:30:00.765Z,16.17
2019-04-11T07:32:30.792Z,14.77
2019-04-11T07:35:19.226Z,12.50
2019-04-11T07:37:51.067Z,12.00
2019-04-11T07:40:39.493Z,13.77
2019-04-11T07:43:24.920Z,14.90
2019-04-11T07:46:27.144Z,11.03
2019-04-11T07:49:08.150Z,11.20
2019-04-11T07:51:48.524Z,11.53
2019-04-11T07:54:20.489Z,11.53
2019-04-11T07:57:08.351Z,11.83
2019-04-11T08:00:01.690Z,9.10
2019-04-11T08:03:06.294Z,10.20
2019-04-11T08:05:59.207Z,8.50
2019-04-11T08:08:47.549Z,10.03
2019-04-11T08:11:42.201Z,8.90
2019-04-11T08:14:20.262Z,10.07
2019-04-11T08:17:12.545Z,9.20
2019-04-11T08:20:09.896Z,8.00
2019-04-11T08:22:45.461Z,7.77
2019-04-11T08:25:31.420Z,9.37
2019-04-11T08:28:05.920Z,7.57
2019-04-11T08:30:46.866Z,9.40
2019-04-11T08:33:18.252Z,8.50
2019-04-11T08:36:09.589Z,6.60
2019-04-11T08:38:39.039Z,8.00
2019-04-11T08:41:27.977Z,5.83
2019-04-11T08:43:57.672Z,7.63
2019-04-11T08:46:39.259Z,6.87
2019-04-11T08:49:34.918Z,10.50
2019-04-11T08:52:09.687Z,5.57
2019-04-11T08:54:57.618Z,9.27
2019-04-11T08:57:36.657Z,9.10
2019-04-11T09:00:26.409Z,4.33
2019-04-11T09:03:01.962Z,6.20
2019-04-11T09:05:41.426Z,5.53
2019-04-11T09:08:29.854Z,7.43
2019-04-11T09:11:20.452Z,4.73
2019-04-11T09:14:15.760Z,8.37
2019-04-11T09:17:05.908Z,7.23
2019-04-11T09:20:07.477Z,5.83
2019-04-11T09:22:42.632Z,6.60
2019-04-11T09:25:30.401Z,5.47
2019-04-11T09:28:15.518Z,5.17
2019-04-11T09:31:05.126Z,9.23
2019-04-11T09:33:59.536Z,5.23
2019-04-11T09:36:47.239Z,6.87
2019-04-11T09:42:32.484Z,4.47
2019-04-11T09:45:19.621Z,7.20
2019-04-11T09:48:14.071Z,5.30
2019-04-11T09:50:57.304Z,7.13
2019-04-11T09:53:26.667Z,5.57
2019-04-11T09:56:15.196Z,6.37
2019-04-11T09:58:45.967Z,7.27
2019-04-11T10:01:46.503Z,5.37
2019-04-11T10:04:16.774Z,5.57
2019-04-11T10:07:05.527Z,7.20
2019-04-11T10:09:50.468Z,7.47
2019-04-11T10:12:40.300Z,5.13
2019-04-11T10:15:11.442Z,6.40
2019-04-11T10:18:20.074Z,9.80
2019-04-11T10:20:40.718Z,6.43
2019-04-11T10:23:22.930Z,5.80
2019-04-11T10:25:59.379Z,6.97
2019-04-11T10:28:47.864Z,7.47
2019-04-11T10:31:20.315Z,5.20
2019-04-11T10:34:11.130Z,5.30
2019-04-11T10:37:01.554Z,6.20
2019-04-11T10:40:00.126Z,6.10
2019-04-11T10:42:30.795Z,6.10
2019-04-11T10:45:19.141Z,8.60
2019-04-11T10:47:49.774Z,6.30
2019-04-11T10:50:48.646Z,7.27
2019-04-11T10:53:19.391Z,7.10
2019-04-11T10:56:08.477Z,6.90
2019-04-11T10:58:44.733Z,6.37
2019-04-11T11:01:31.797Z,7.63
2019-04-11T11:04:21.203Z,6.77
2019-04-11T11:06:53.890Z,6.10
2019-04-11T11:09:42.272Z,6.77
2019-04-11T11:12:23.312Z,5.43
2019-04-11T11:15:17.771Z,7.17
2019-04-11T11:18:42.692Z,7.27
2019-04-11T11:20:50.087Z,6.23
2019-04-11T11:23:35.167Z,7.37
2019-04-11T11:26:09.611Z,6.40
2019-04-11T11:29:07.083Z,7.43
2019-04-11T11:31:38.680Z,7.47
2019-04-11T11:34:17.404Z,6.10
2019-04-11T11:37:17.637Z,8.23
2019-04-11T11:40:10.599Z,7.00
2019-04-11T11:43:01.267Z,7.57
2019-04-11T11:45:49.193Z,7.50
2019-04-11T11:48:33.457Z,7.60
2019-04-11T11:51:06.575Z,8.10
2019-04-11T11:53:46.879Z,8.17
2019-04-11T11:56:19.920Z,7.70
2019-04-11T11:59:23.390Z,12.13
2019-04-11T12:02:00.032Z,10.23
2019-04-11T12:04:48.596Z,8.07
2019-04-11T12:07:21.058Z,9.70
2019-04-11T12:10:09.580Z,8.00
2019-04-11T12:12:58.094Z,6.10
2019-04-11T12:15:45.598Z,11.77
2019-04-11T12:18:46.550Z,6.20
2019-04-11T12:21:16.272Z,5.03
2019-04-11T12:24:06.515Z,6.63
2019-04-11T12:26:41.640Z,7.33
2019-04-11T12:29:17.078Z,7.07
2019-04-11T12:31:50.265Z,5.03
2019-04-11T12:34:40.691Z,4.20
2019-04-11T12:37:17.633Z,6.20
2019-04-11T12:40:21.532Z,3.17
2019-04-11T12:42:51.666Z,3.80
2019-04-11T12:45:50.505Z,4.73
2019-04-11T12:48:23.480Z,8.27
2019-04-11T12:51:10.272Z,7.20
2019-04-11T12:53:40.305Z,7.93
2019-04-11T12:56:27.295Z,4.40
2019-04-11T12:59:15.604Z,7.77
2019-04-11T13:02:02.971Z,8.97
2019-04-11T13:04:34.300Z,4.53
2019-04-11T13:07:34.769Z,4.83
2019-04-11T13:10:24.201Z,9.80
2019-04-11T13:13:18.583Z,6.00
2019-04-11T13:16:12.394Z,6.90
2019-04-11T13:19:05.152Z,5.97
2019-04-11T13:21:53.362Z,8.17
2019-04-11T13:24:35.290Z,5.57
2019-04-11T13:27:18.912Z,7.00
2019-04-11T13:30:08.373Z,6.03
2019-04-11T13:32:57.786Z,5.03
2019-04-11T13:35:55.994Z,4.43
2019-04-11T13:38:31.628Z,6.17
2019-04-11T13:41:20.423Z,7.77
2019-04-11T13:44:09.936Z,6.07
2019-04-11T13:46:59.499Z,9.90
2019-04-11T13:49:39.276Z,2.80
2019-04-11T13:52:30.404Z,4.60
2019-04-11T13:55:11.031Z,4.43
2019-04-11T13:57:59.402Z,6.67
2019-04-11T14:00:43.329Z,5.47
2019-04-11T14:03:40.851Z,8.23
2019-04-11T14:06:37.983Z,7.33
2019-04-11T14:09:34.765Z,7.57
2019-04-11T14:12:09.525Z,8.20
2019-04-11T14:14:41.415Z,4.53
2019-04-11T14:17:28.381Z,6.13
2019-04-11T14:20:29.584Z,5.90
2019-04-11T14:23:14.816Z,6.53
2019-04-11T14:26:12.879Z,5.40
2019-04-11T14:29:04.020Z,7.03
2019-04-11T14:31:59.482Z,8.07
2019-04-11T14:34:46.574Z,6.93
2019-04-11T14:37:37.471Z,7.00
2019-04-11T14:40:03.679Z,5.50
2019-04-11T14:42:46.572Z,6.03
2019-04-11T14:45:31.034Z,4.37
2019-04-11T14:48:14.587Z,3.30
2019-04-11T14:51:16.735Z,4.37
2019-04-11T14:54:20.344Z,5.67
2019-04-11T14:56:58.351Z,5.07
2019-04-11T14:59:33.690Z,6.30
2019-04-11T15:02:40.351Z,3.90
2019-04-11T15:05:17.419Z,6.57
2019-04-11T15:07:48.020Z,3.90
2019-04-11T15:10:34.793Z,4.80
2019-04-11T15:13:06.176Z,3.13
2019-04-11T15:15:53.553Z,5.43
2019-04-11T15:18:26.592Z,5.50
2019-04-11T15:21:07.331Z,6.37
2019-04-11T15:23:42.510Z,5.80
2019-04-11T15:26:30.588Z,4.27
2019-04-11T15:29:07.094Z,3.50
2019-04-11T15:32:07.646Z,3.10
2019-04-11T15:34:39.323Z,6.67
2019-04-11T15:37:47.166Z,4.53
2019-04-11T15:40:32.169Z,6.60
2019-04-11T15:43:23.366Z,4.40
2019-04-11T15:46:05.788Z,6.17
2019-04-11T15:49:03.306Z,6.70
2019-04-11T15:52:18.263Z,3.80
2019-04-11T15:55:07.861Z,6.20
2019-04-11T15:57:42.920Z,5.53
2019-04-11T16:00:31.324Z,3.80
2019-04-11T16:03:06.306Z,6.30
2019-04-11T16:06:02.775Z,5.27
2019-04-11T16:08:49.958Z,5.20
2019-04-11T16:11:53.379Z,5.23
2019-04-11T16:14:51.354Z,5.83
2019-04-11T16:17:39.992Z,6.07
2019-04-11T16:20:34.690Z,6.23
2019-04-11T16:23:30.855Z,6.33
2019-04-11T16:26:00.245Z,6.20
2019-04-11T16:28:47.818Z,9.67
2019-04-11T16:31:17.277Z,4.60
2019-04-11T16:33:55.008Z,6.63
2019-04-11T16:36:42.045Z,6.20
2019-04-11T16:39:50.323Z,10.40
2019-04-11T16:42:38.411Z,5.67
2019-04-11T16:45:40.081Z,6.17
2019-04-11T16:48:10.006Z,9.10
2019-04-11T16:50:39.347Z,6.07
2019-04-11T16:53:11.499Z,9.23
2019-04-11T16:55:43.211Z,5.83
2019-04-11T16:58:15.177Z,8.60
2019-04-11T17:00:42.199Z,10.27
2019-04-11T17:03:11.641Z,8.33
2019-04-11T17:05:42.891Z,7.73
2019-04-11T17:08:29.624Z,9.63
2019-04-11T17:11:13.319Z,8.70
2019-04-11T17:13:42.719Z,7.20
2019-04-11T17:16:13.695Z,9.30
2019-04-11T17:18:43.094Z,11.03
2019-04-11T17:21:12.503Z,7.07
2019-04-11T17:23:41.872Z,9.27
2019-04-11T17:26:11.535Z,7.87
2019-04-11T17:28:43.329Z,9.00
2019-04-11T17:31:12.051Z,9.20
2019-04-11T17:33:41.524Z,7.53
2019-04-11T17:36:10.949Z,10.03
2019-04-11T17:38:40.348Z,9.63
2019-04-11T17:41:11.979Z,10.87
2019-04-11T17:43:42.189Z,9.73
2019-04-11T17:46:11.720Z,11.93
2019-04-11T17:48:41.477Z,9.77
2019-04-11T17:51:11.279Z,7.10
2019-04-11T17:53:40.801Z,9.93
2019-04-11T17:56:10.298Z,9.17
2019-04-11T17:58:39.835Z,7.60
2019-04-11T18:01:09.315Z,12.47
2019-04-11T18:03:41.835Z,12.80
2019-04-11T18:06:09.743Z,10.90
2019-04-11T18:08:39.149Z,9.23
2019-04-11T18:11:08.746Z,8.73
2019-04-11T18:13:38.114Z,7.87
2019-04-11T18:16:07.540Z,10.13
2019-04-11T18:18:36.996Z,9.97
2019-04-11T18:21:07.375Z,8.60
2019-04-11T18:23:37.409Z,12.47
2019-04-11T18:26:06.922Z,9.00
2019-04-11T18:28:36.341Z,12.13
2019-04-11T18:31:25.571Z,11.70
2019-04-11T18:33:55.252Z,8.17
2019-04-11T18:36:24.639Z,12.83
2019-04-11T18:38:54.139Z,9.10
2019-04-11T18:41:23.580Z,8.33
2019-04-11T18:43:52.962Z,9.13
2019-04-11T18:46:22.808Z,8.40
2019-04-11T18:48:54.403Z,12.80
2019-04-11T18:51:23.752Z,8.67
2019-04-11T18:53:53.526Z,10.90
2019-04-11T18:56:22.882Z,10.20
2019-04-11T18:58:52.308Z,13.33
2019-04-11T19:01:21.826Z,10.03
2019-04-11T19:03:51.137Z,14.57
2019-04-11T19:06:27.703Z,9.00
2019-04-11T19:08:51.604Z,13.97
2019-04-11T19:11:21.344Z,14.27
2019-04-11T19:13:50.790Z,8.20
2019-04-11T19:16:20.378Z,8.97
2019-04-11T19:18:51.198Z,13.00
2019-04-11T19:21:21.256Z,8.27
2019-04-11T19:23:52.343Z,7.27
2019-04-11T19:26:22.979Z,7.77
2019-04-11T19:28:54.983Z,10.00
2019-04-11T19:31:27.382Z,9.87
2019-04-11T19:33:54.857Z,12.17
2019-04-11T19:36:24.193Z,10.97
2019-04-11T19:38:53.673Z,11.23
2019-04-11T19:41:23.004Z,14.43
2019-04-11T19:43:52.329Z,10.37
2019-04-11T19:46:21.798Z,12.97
2019-04-11T19:48:55.325Z,8.53
2019-04-11T19:51:23.382Z,8.17
2019-04-11T19:53:52.896Z,10.43
2019-04-11T19:56:31.291Z,8.67
2019-04-11T19:59:00.985Z,10.60
2019-04-11T20:01:30.356Z,11.33
2019-04-11T20:03:59.771Z,6.30
2019-04-11T20:06:29.248Z,7.07
2019-04-11T20:08:58.811Z,9.80
2019-04-11T20:11:29.378Z,4.67
2019-04-11T20:14:00.075Z,10.03
2019-04-11T20:16:41.391Z,8.63
2019-04-11T20:19:04.221Z,7.83
2019-04-11T20:21:33.608Z,10.00
2019-04-11T20:24:04.624Z,6.57
2019-04-11T20:26:34.061Z,6.93
2019-04-11T20:29:03.447Z,8.23
2019-04-11T20:31:32.838Z,8.30
2019-04-11T20:34:07.003Z,8.47
2019-04-11T20:36:35.123Z,6.17
2019-04-11T20:39:06.637Z,9.03
2019-04-11T20:41:36.630Z,11.63
2019-04-11T20:44:06.121Z,6.80
2019-04-11T20:46:35.632Z,6.40
2019-04-11T20:49:05.027Z,5.47
2019-04-11T20:51:34.499Z,6.70
2019-04-11T20:54:07.335Z,4.53
2019-04-11T20:56:39.904Z,8.47
2019-04-11T20:59:10.434Z,5.63
2019-04-11T21:01:39.488Z,5.27
2019-04-11T21:04:08.899Z,7.37
2019-04-11T21:06:38.273Z,12.10
2019-04-11T21:09:12.102Z,7.87
2019-04-11T21:11:41.525Z,6.63
2019-04-11T21:14:11.039Z,5.57
2019-04-11T21:16:40.850Z,5.47
2019-04-11T21:19:10.219Z,6.50
2019-04-11T21:21:39.718Z,10.27
2019-04-11T21:24:09.218Z,7.53
2019-04-11T21:26:38.575Z,3.30
2019-04-11T21:29:09.081Z,6.00
2019-04-11T21:31:38.530Z,6.50
2019-04-11T21:34:07.993Z,5.50
2019-04-11T21:36:37.434Z,10.37
2019-04-11T21:39:08.499Z,7.77
2019-04-11T21:41:37.846Z,9.03
2019-04-11T21:44:07.239Z,7.00
2019-04-11T21:46:38.162Z,7.40
2019-04-11T21:49:07.870Z,7.43
2019-04-11T21:51:41.440Z,7.10
2019-04-11T21:54:08.508Z,6.53
2019-04-11T21:56:38.061Z,7.03
2019-04-11T21:59:07.384Z,12.13
2019-04-11T22:01:40.174Z,7.87
2019-04-11T22:04:10.492Z,8.37
2019-04-11T22:06:40.028Z,5.73
2019-04-11T22:09:09.773Z,9.73
2019-04-11T22:11:39.279Z,8.90
2019-04-11T22:14:10.978Z,7.57
2019-04-11T22:16:44.222Z,10.17
2019-04-11T22:19:14.242Z,9.13
2019-04-11T22:21:45.469Z,6.57
2019-04-11T22:24:15.277Z,8.33
2019-04-11T22:26:44.736Z,12.03
2019-04-11T22:29:14.213Z,11.60
2019-04-11T22:31:43.576Z,8.37
2019-04-11T22:34:21.594Z,10.33
2019-04-11T22:36:51.064Z,9.90
2019-04-11T22:39:20.378Z,12.20
2019-04-11T22:41:49.874Z,8.07
2019-04-11T22:44:19.216Z,9.07
2019-04-11T22:46:48.794Z,11.40
2019-04-11T22:49:18.300Z,7.53
2019-04-11T22:51:48.065Z,8.70
2019-04-11T22:54:17.549Z,8.23
2019-04-11T22:56:47.029Z,8.20
2019-04-11T22:59:16.449Z,12.43
2019-04-11T23:01:47.077Z,10.07
2019-04-11T23:04:18.913Z,8.80
2019-04-11T23:06:48.332Z,9.47
2019-04-11T23:09:19.459Z,8.73
2019-04-11T23:11:49.238Z,12.60
2019-04-11T23:14:18.631Z,7.47
2019-04-11T23:16:48.075Z,9.90
2019-04-11T23:19:17.532Z,7.80
2019-04-11T23:21:46.943Z,11.40
2019-04-11T23:24:16.290Z,10.47
2019-04-11T23:26:45.660Z,14.10
2019-04-11T23:29:16.065Z,7.70
2019-04-11T23:31:46.090Z,10.10
2019-04-11T23:34:15.761Z,8.70
2019-04-11T23:36:45.105Z,9.83
2019-04-11T23:39:14.538Z,8.47
2019-04-11T23:41:44.105Z,8.20
2019-04-11T23:44:13.507Z,6.63
2019-04-11T23:46:42.895Z,13.53
2019-04-11T23:49:12.361Z,9.83
2019-04-11T23:51:41.662Z,9.57
2019-04-11T23:54:11.023Z,11.30
2019-04-11T23:56:40.795Z,8.80
2019-04-11T23:59:10.207Z,8.37
